createdAt,value
2023-02-02T00:02:05.209Z,89.82
2023-02-02T00:06:17.358Z,89.87
2023-02-02T00:10:29.104Z,89.90
2023-02-02T00:14:40.941Z,90.00
2023-02-02T00:18:45.481Z,90.09
2023-02-02T00:22:57.620Z,90.12
2023-02-02T00:27:10.001Z,90.15
2023-02-02T00:31:22.606Z,90.15
2023-02-02T00:35:35.321Z,90.13
2023-02-02T00:39:40.576Z,90.12
2023-02-02T00:43:52.256Z,90.19
2023-02-02T00:48:04.532Z,90.23
2023-02-02T00:52:16.157Z,90.29
2023-02-02T00:56:28.476Z,90.41
2023-02-02T01:00:41.030Z,90.47
2023-02-02T01:04:53.678Z,90.50
2023-02-02T01:09:05.544Z,90.55
2023-02-02T01:13:50.701Z,90.53
2023-02-02T01:17:54.276Z,90.57
2023-02-02T01:22:06.849Z,90.64
2023-02-02T01:26:18.752Z,90.70
2023-02-02T01:30:30.937Z,90.72
2023-02-02T01:34:42.876Z,90.74
2023-02-02T01:39:14.077Z,90.73
2023-02-02T01:43:15.433Z,90.75
2023-02-02T01:47:27.647Z,90.78
2023-02-02T01:51:42.798Z,90.82
2023-02-02T01:55:55.273Z,90.80
2023-02-02T02:00:06.860Z,90.94
2023-02-02T02:04:38.152Z,91.09
2023-02-02T02:08:52.347Z,91.15
2023-02-02T02:13:04.583Z,91.26
2023-02-02T02:17:33.357Z,91.24
2023-02-02T02:21:46.121Z,91.19
2023-02-02T02:25:56.676Z,91.12
2023-02-02T02:30:12.149Z,91.04
2023-02-02T02:34:22.956Z,90.97
2023-02-02T02:38:40.897Z,90.94
2023-02-02T02:42:52.765Z,90.93
2023-02-02T02:47:04.931Z,90.93
2023-02-02T02:51:17.852Z,90.92
2023-02-02T02:55:30.261Z,90.90
2023-02-02T02:59:42.583Z,90.90
2023-02-02T03:03:53.879Z,90.89
2023-02-02T03:08:08.664Z,90.88
2023-02-02T03:12:20.674Z,90.87
2023-02-02T03:16:51.630Z,90.88
2023-02-02T03:21:03.522Z,90.89
2023-02-02T03:25:15.330Z,90.90
2023-02-02T03:29:26.412Z,90.94
2023-02-02T03:33:38.551Z,91.00
2023-02-02T03:37:58.531Z,91.05
2023-02-02T03:42:05.133Z,91.08
2023-02-02T03:46:17.946Z,91.12
2023-02-02T03:50:30.036Z,91.16
2023-02-02T03:54:42.133Z,91.26
2023-02-02T03:58:54.702Z,91.32
2023-02-02T04:03:07.274Z,91.35
2023-02-02T04:07:32.931Z,91.40
2023-02-02T04:11:44.653Z,91.46
2023-02-02T04:15:56.659Z,91.47
2023-02-02T04:20:03.598Z,91.46
2023-02-02T04:24:15.350Z,91.43
2023-02-02T04:28:27.247Z,91.43
2023-02-02T04:32:39.278Z,91.42
2023-02-02T04:36:51.672Z,91.42
2023-02-02T04:40:55.741Z,91.44
2023-02-02T04:45:08.078Z,91.45
2023-02-02T04:49:20.469Z,91.46
2023-02-02T04:53:46.382Z,91.52
2023-02-02T04:57:58.115Z,91.52
2023-02-02T05:02:10.273Z,91.55
2023-02-02T05:06:23.065Z,91.58
2023-02-02T05:10:35.831Z,91.55
2023-02-02T05:14:48.108Z,91.53
2023-02-02T05:18:59.950Z,91.56
2023-02-02T05:23:12.053Z,91.57
2023-02-02T05:27:24.451Z,91.57
2023-02-02T05:31:31.638Z,91.59
2023-02-02T05:35:44.134Z,91.64
2023-02-02T05:39:56.704Z,91.69
2023-02-02T05:44:08.794Z,91.73
2023-02-02T05:48:12.662Z,91.77
2023-02-02T05:52:18.055Z,91.75
2023-02-02T05:56:23.059Z,91.71
2023-02-02T06:00:35.011Z,91.69
2023-02-02T06:04:47.163Z,91.70
2023-02-02T06:08:59.495Z,91.67
2023-02-02T06:13:16.823Z,91.64
2023-02-02T06:17:29.162Z,91.60
2023-02-02T06:21:41.530Z,91.54
2023-02-02T06:25:53.586Z,91.43
2023-02-02T06:30:00.831Z,91.33
2023-02-02T06:34:12.725Z,91.25
2023-02-02T06:38:25.088Z,91.20
2023-02-02T06:42:30.864Z,91.11
2023-02-02T06:46:42.730Z,91.07
2023-02-02T06:50:54.785Z,91.00
2023-02-02T06:55:07.124Z,90.94
2023-02-02T06:59:19.173Z,90.81
2023-02-02T07:03:31.791Z,90.73
2023-02-02T07:07:42.512Z,90.64
2023-02-02T07:11:49.445Z,90.63
2023-02-02T07:16:01.258Z,90.64
2023-02-02T07:20:13.261Z,90.55
2023-02-02T07:24:19.881Z,90.49
2023-02-02T07:28:35.234Z,90.45
2023-02-02T07:32:38.412Z,90.40
2023-02-02T07:36:50.371Z,90.39
2023-02-02T07:41:02.718Z,90.31
2023-02-02T07:45:27.021Z,90.25
2023-02-02T07:49:39.645Z,90.14
2023-02-02T07:53:50.245Z,90.05
2023-02-02T07:58:02.436Z,89.99
2023-02-02T08:02:14.956Z,89.92
2023-02-02T08:06:27.041Z,89.83
2023-02-02T08:10:40.303Z,89.73
2023-02-02T08:14:52.433Z,89.64
2023-02-02T08:19:04.453Z,89.50
2023-02-02T08:23:16.405Z,89.33
2023-02-02T08:27:28.435Z,89.19
2023-02-02T08:31:40.229Z,89.04
2023-02-02T08:36:04.662Z,88.89
2023-02-02T08:40:16.288Z,88.71
2023-02-02T08:44:42.087Z,88.58
2023-02-02T08:49:00.146Z,88.38
2023-02-02T08:53:12.119Z,88.26
2023-02-02T08:57:23.909Z,88.14
2023-02-02T09:01:36.496Z,87.96
2023-02-02T09:05:48.525Z,87.91
2023-02-02T09:10:00.656Z,87.85
2023-02-02T09:14:12.818Z,87.66
2023-02-02T09:18:39.161Z,87.65
2023-02-02T09:22:50.979Z,87.65
2023-02-02T09:27:06.389Z,87.66
2023-02-02T09:31:32.629Z,87.76
2023-02-02T09:35:46.785Z,87.66
2023-02-02T09:39:59.103Z,87.45
2023-02-02T09:44:09.676Z,87.13
2023-02-02T09:48:21.160Z,86.65
2023-02-02T09:52:36.221Z,86.35
2023-02-02T09:56:48.818Z,86.16
2023-02-02T10:01:04.178Z,85.96
2023-02-02T10:05:16.189Z,85.54
2023-02-02T10:09:28.940Z,85.15
2023-02-02T10:13:41.341Z,84.61
2023-02-02T10:18:06.087Z,84.22
2023-02-02T10:22:30.497Z,83.85
2023-02-02T10:26:45.641Z,83.39
2023-02-02T10:31:01.352Z,83.27
2023-02-02T10:35:14.790Z,83.26
2023-02-02T10:39:25.643Z,83.62
2023-02-02T10:43:36.326Z,83.81
2023-02-02T10:47:42.611Z,84.10
2023-02-02T10:52:00.427Z,84.27
2023-02-02T10:56:10.430Z,84.42
2023-02-02T11:00:45.058Z,84.59
2023-02-02T11:04:55.261Z,84.62
2023-02-02T11:09:05.500Z,84.41
2023-02-02T11:13:18.145Z,84.30
2023-02-02T11:17:30.217Z,84.46
2023-02-02T11:21:43.442Z,84.79
2023-02-02T11:25:53.873Z,85.04
2023-02-02T11:30:06.271Z,85.28
2023-02-02T11:34:20.459Z,85.56
2023-02-02T11:38:36.063Z,85.72
2023-02-02T11:43:07.472Z,85.89
2023-02-02T11:47:19.006Z,86.00
2023-02-02T11:51:31.203Z,86.16
2023-02-02T11:55:43.272Z,86.22
2023-02-02T12:00:07.337Z,86.23
2023-02-02T12:04:39.604Z,86.27
2023-02-02T12:08:51.784Z,86.30
2023-02-02T12:12:57.704Z,86.37
2023-02-02T12:17:07.401Z,86.41
2023-02-02T12:21:18.123Z,86.33
2023-02-02T12:25:28.788Z,86.07
2023-02-02T12:29:40.634Z,85.75
2023-02-02T12:33:55.684Z,85.39
2023-02-02T12:38:14.765Z,85.08
2023-02-02T12:42:33.003Z,84.74
2023-02-02T12:46:44.026Z,84.64
2023-02-02T12:50:54.582Z,84.67
2023-02-02T12:55:06.794Z,84.70
2023-02-02T12:59:19.523Z,84.84
2023-02-02T13:03:31.869Z,85.05
2023-02-02T13:07:49.540Z,85.24
2023-02-02T13:11:55.977Z,85.42
2023-02-02T13:16:08.025Z,85.72
2023-02-02T13:20:20.295Z,85.86
2023-02-02T13:24:32.190Z,85.85
2023-02-02T13:28:34.514Z,85.95
2023-02-02T13:32:47.530Z,86.02
2023-02-02T13:37:00.413Z,85.77
2023-02-02T13:45:50.842Z,85.02
2023-02-02T13:50:00.716Z,84.79
2023-02-02T13:54:13.043Z,84.62
2023-02-02T13:58:18.677Z,84.48
2023-02-02T14:02:31.550Z,84.16
2023-02-02T14:06:44.048Z,83.75
2023-02-02T14:10:49.664Z,83.78
2023-02-02T14:15:02.259Z,84.04
2023-02-02T14:19:12.531Z,84.23
2023-02-02T14:23:25.652Z,84.37
2023-02-02T14:27:38.277Z,84.43
2023-02-02T14:31:48.649Z,84.40
2023-02-02T14:36:06.775Z,84.35
2023-02-02T14:40:22.138Z,84.38
2023-02-02T14:44:33.978Z,84.37
2023-02-02T14:49:00.105Z,84.29
2023-02-02T14:53:12.178Z,84.27
2023-02-02T14:57:27.214Z,84.33
2023-02-02T15:01:45.853Z,84.45
2023-02-02T15:06:10.412Z,84.45
2023-02-02T15:10:22.886Z,84.29
2023-02-02T15:14:34.406Z,84.14
2023-02-02T15:18:55.441Z,84.28
2023-02-02T15:23:07.960Z,84.43
2023-02-02T15:27:21.962Z,84.43
2023-02-02T15:31:32.958Z,84.40
2023-02-02T15:35:45.687Z,84.39
2023-02-02T15:40:01.789Z,84.26
2023-02-02T15:44:14.024Z,84.37
2023-02-02T15:48:28.801Z,84.56
2023-02-02T15:52:35.499Z,84.76
2023-02-02T15:57:05.917Z,84.88
2023-02-02T16:01:13.195Z,84.90
2023-02-02T16:05:26.197Z,84.87
2023-02-02T16:09:39.268Z,84.86
2023-02-02T16:13:55.007Z,84.95
2023-02-02T16:18:01.220Z,85.08
2023-02-02T16:22:13.877Z,85.20
2023-02-02T16:26:32.115Z,85.39
2023-02-02T16:30:38.335Z,85.52
2023-02-02T16:34:50.839Z,85.57
2023-02-02T16:39:05.998Z,85.65
2023-02-02T16:43:18.687Z,85.51
2023-02-02T16:51:56.492Z,84.94
2023-02-02T16:56:03.370Z,84.78
2023-02-02T17:00:16.103Z,84.79
2023-02-02T17:04:28.423Z,84.71
2023-02-02T17:08:36.240Z,84.31
2023-02-02T17:13:00.452Z,83.65
2023-02-02T17:17:12.764Z,83.15
2023-02-02T17:21:25.013Z,82.58
2023-02-02T17:25:36.643Z,82.21
2023-02-02T17:29:49.061Z,81.91
2023-02-02T17:33:55.083Z,81.67
2023-02-02T17:38:21.874Z,81.42
2023-02-02T17:42:33.945Z,81.59
2023-02-02T17:46:41.744Z,81.64
2023-02-02T17:50:53.826Z,81.44
2023-02-02T17:54:55.827Z,81.19
2023-02-02T17:59:08.180Z,80.92
2023-02-02T18:03:20.577Z,80.62
2023-02-02T18:07:34.514Z,80.67
2023-02-02T18:11:47.317Z,80.60
2023-02-02T18:16:00.257Z,80.37
2023-02-02T18:20:18.963Z,80.04
2023-02-02T18:24:26.525Z,79.59
2023-02-02T18:28:39.065Z,79.28
2023-02-02T18:32:51.635Z,78.89
2023-02-02T18:37:17.707Z,78.53
2023-02-02T18:41:34.960Z,78.27
2023-02-02T18:45:47.704Z,78.38
2023-02-02T18:50:00.150Z,78.64
2023-02-02T18:54:12.428Z,78.84
2023-02-02T18:58:25.067Z,79.05
2023-02-02T19:02:30.161Z,78.78
2023-02-02T19:06:40.461Z,78.60
2023-02-02T19:10:52.398Z,78.61
2023-02-02T19:15:12.916Z,78.26
2023-02-02T19:19:09.035Z,78.36
2023-02-02T19:23:21.197Z,78.44
2023-02-02T19:27:32.984Z,78.36
2023-02-02T19:31:45.562Z,78.44
2023-02-02T19:36:00.620Z,78.16
2023-02-02T19:40:13.531Z,77.74
2023-02-02T19:44:25.769Z,77.43
2023-02-02T19:48:56.980Z,77.42
2023-02-02T19:53:08.600Z,77.37
2023-02-02T19:57:20.571Z,77.25
2023-02-02T20:01:32.575Z,77.45
2023-02-02T20:05:39.540Z,77.58
2023-02-02T20:09:51.304Z,77.52
2023-02-02T20:14:06.402Z,77.68
2023-02-02T20:18:08.386Z,77.71
2023-02-02T20:22:39.260Z,77.74
2023-02-02T20:26:49.181Z,77.69
2023-02-02T20:31:04.330Z,77.60
2023-02-02T20:35:16.180Z,77.40
2023-02-02T20:39:36.757Z,77.54
2023-02-02T20:43:48.867Z,77.64
2023-02-02T20:48:01.207Z,77.67
2023-02-02T20:52:12.926Z,77.59
2023-02-02T20:56:20.101Z,77.31
2023-02-02T21:00:32.820Z,77.18
2023-02-02T21:04:58.706Z,77.06
2023-02-02T21:09:05.772Z,76.89
2023-02-02T21:13:12.239Z,76.83
2023-02-02T21:17:24.582Z,76.86
2023-02-02T21:21:36.644Z,76.71
2023-02-02T21:25:40.698Z,76.72
2023-02-02T21:29:31.370Z,76.63
2023-02-02T21:33:43.882Z,76.87
2023-02-02T21:37:55.995Z,76.92
2023-02-02T21:42:08.162Z,76.83
2023-02-02T21:46:20.932Z,76.96
2023-02-02T21:50:33.197Z,76.98
2023-02-02T21:54:44.372Z,77.15
2023-02-02T21:58:55.748Z,77.25
2023-02-02T22:02:58.443Z,77.36
2023-02-02T22:07:10.435Z,77.47
2023-02-02T22:11:22.385Z,77.50
2023-02-02T22:15:34.542Z,77.44
2023-02-02T22:19:45.851Z,77.34
2023-02-02T22:23:58.422Z,77.28
2023-02-02T22:28:12.563Z,77.26
2023-02-02T22:32:25.370Z,77.19
2023-02-02T22:36:30.351Z,77.17
2023-02-02T22:40:45.573Z,77.09
2023-02-02T22:44:57.892Z,77.02
2023-02-02T22:49:10.478Z,76.77
2023-02-02T22:53:22.826Z,76.72
2023-02-02T22:57:35.324Z,76.57
2023-02-02T23:02:06.148Z,76.50
2023-02-02T23:06:17.640Z,76.53
2023-02-02T23:10:31.563Z,76.56
2023-02-02T23:14:43.627Z,76.60
2023-02-02T23:18:55.701Z,76.77
2023-02-02T23:23:00.652Z,76.90
2023-02-02T23:27:12.562Z,77.00
2023-02-02T23:31:24.446Z,77.09
2023-02-02T23:35:36.715Z,77.19
2023-02-02T23:39:48.865Z,77.26
2023-02-02T23:44:02.950Z,77.29
2023-02-02T23:48:14.997Z,77.42
2023-02-02T23:52:40.710Z,77.51
2023-02-02T23:56:53.038Z,77.61
